Time;durP1;ratioP1;P1;durP2;ratioP2;P2;SDS_P1;SDS_P2;PMS_P1;PMS_P2;Temp;Humidity;BMP_temperature;BMP_pressure;BME280_temperature;BME280_humidity;BME280_pressure;Samples;Min_cycle;Max_cycle;Signal;HPM_P1;HPM_P2
2022/11/04 00:01:39;;;;;;;0.93;0.88;;;;;;;14.41;65.64;100395.97;18244638;32;20098;-59
2022/11/04 00:42:45;;;;;;;1.10;1.10;;;;;;;14.52;65.53;100331.00;18047246;32;20119;-59
2022/11/04 00:52:50;;;;;;;1.48;0.75;;;;;;;14.52;65.56;100314.38;18047112;32;20502;-59
2022/11/04 01:02:53;;;;;;;0.82;0.82;;;;;;;14.51;65.62;100308.25;18046904;32;20286;-59
2022/11/04 01:12:58;;;;;;;1.37;1.00;;;;;;;13.97;67.66;100297.00;18081372;32;20118;-59
2022/11/04 01:23:01;;;;;;;0.73;0.73;;;;;;;13.91;68.74;100286.62;18243265;32;20105;-60
2022/11/04 01:33:06;;;;;;;0.55;0.47;;;;;;;14.01;68.80;100267.19;18243602;32;20800;-59
2022/11/04 01:43:15;;;;;;;0.40;0.40;;;;;;;14.50;67.18;100258.38;18242767;32;20097;-59
2022/11/04 01:53:24;;;;;;;0.90;0.80;;;;;;;14.51;67.20;100237.34;18242118;32;20090;-59
2022/11/04 02:03:31;;;;;;;0.75;0.60;;;;;;;14.64;66.21;100221.31;18242005;32;20140;-59
2022/11/04 02:13:37;;;;;;;0.40;0.40;;;;;;;14.42;66.54;100206.03;18241665;32;20151;-59
2022/11/04 02:24:25;;;;;;;2.08;0.88;;;;;;;14.40;66.51;100189.41;18241010;32;20094;-59
2022/11/04 02:34:35;;;;;;;0.62;0.62;;;;;;;14.01;68.09;100198.09;18228417;32;20450;-59
2022/11/04 02:44:43;;;;;;;0.73;0.50;;;;;;;12.93;72.37;100185.09;18240725;32;20138;-59
2022/11/04 02:54:52;;;;;;;0.73;0.65;;;;;;;12.57;73.78;100164.66;18239836;32;20384;-59
2022/11/04 03:04:55;;;;;;;0.57;0.57;;;;;;;12.14;75.20;100160.84;18239872;32;20446;-59
2022/11/04 03:15:03;;;;;;;0.85;0.85;;;;;;;12.18;74.09;100159.94;18238705;32;20090;-59
2022/11/04 03:25:08;;;;;;;1.75;1.05;;;;;;;11.90;75.17;100140.19;18239746;32;20090;-59
2022/11/04 03:35:14;;;;;;;0.88;0.88;;;;;;;12.27;72.89;100131.03;18244403;32;20141;-59
2022/11/04 03:45:18;;;;;;;1.05;0.88;;;;;;;12.46;71.89;100129.00;18245979;32;20147;-59
2022/11/04 03:55:34;;;;;;;0.45;0.45;;;;;;;12.32;72.67;100121.34;18245500;32;20414;-59
2022/11/04 04:05:42;;;;;;;0.70;0.70;;;;;;;12.30;71.99;100090.88;18245351;32;20414;-59
2022/11/04 04:15:49;;;;;;;2.20;1.85;;;;;;;12.72;70.28;100072.75;18246101;32;20109;-59
2022/11/04 04:36:15;;;;;;;0.57;0.57;;;;;;;12.28;73.12;100072.56;18245508;32;20100;-59
2022/11/04 04:46:19;;;;;;;2.60;1.15;;;;;;;11.47;76.64;100057.84;18243759;32;20144;-59
2022/11/04 04:56:23;;;;;;;1.37;1.37;;;;;;;11.52;76.71;100050.84;18243149;32;20137;-59
2022/11/04 05:06:26;;;;;;;7.87;1.65;;;;;;;11.29;77.81;100052.84;18243398;32;20506;-59
2022/11/04 05:16:31;;;;;;;0.85;0.85;;;;;;;10.92;79.41;100041.91;18270112;32;20097;-59
2022/11/04 05:26:41;;;;;;;0.57;0.57;;;;;;;11.29;77.07;100045.03;18301385;32;20140;-59
2022/11/04 05:36:46;;;;;;;0.82;0.82;;;;;;;12.21;73.72;100056.09;18305098;32;20101;-59
2022/11/04 05:46:49;;;;;;;5.15;1.87;;;;;;;11.65;74.85;100063.75;18306748;32;20147;-59
2022/11/04 05:56:54;;;;;;;0.50;0.50;;;;;;;11.08;77.09;100046.94;18305302;32;20167;-59
2022/11/04 06:06:57;;;;;;;0.62;0.62;;;;;;;11.92;74.10;100039.00;18305096;32;20111;-59
2022/11/04 06:17:01;;;;;;;2.00;1.60;;;;;;;11.37;75.63;100048.38;18304240;32;20418;-59
2022/11/04 06:27:05;;;;;;;0.30;0.30;;;;;;;11.41;76.13;100057.94;18305985;32;20183;-59
2022/11/04 06:37:10;;;;;;;0.43;0.43;;;;;;;10.61;79.09;100063.03;18303549;32;20093;-59
2022/11/04 06:47:13;;;;;;;1.45;0.50;;;;;;;10.84;78.54;100059.38;18303541;32;20374;-59
2022/11/04 06:57:18;;;;;;;0.70;0.70;;;;;;;11.50;75.49;100072.62;18303468;32;20365;-59
2022/11/04 07:07:23;;;;;;;1.95;1.85;;;;;;;11.85;73.76;100066.12;18297381;32;20167;-59
2022/11/04 07:17:29;;;;;;;1.00;0.85;;;;;;;11.18;75.87;100061.66;18287778;32;20108;-59
2022/11/04 07:27:32;;;;;;;0.73;0.50;;;;;;;11.58;74.91;100047.28;18300558;32;20160;-60
2022/11/04 07:37:37;;;;;;;1.50;1.00;;;;;;;12.54;71.41;100057.34;18298693;32;20138;-59
2022/11/04 07:47:40;;;;;;;1.23;0.80;;;;;;;11.87;73.96;100053.87;18270651;32;20112;-60
2022/11/04 07:57:44;;;;;;;3.83;1.75;;;;;;;12.59;71.37;100043.28;18236643;32;20097;-59
2022/11/04 08:07:48;;;;;;;17.65;2.05;;;;;;;12.33;71.00;100023.63;18282337;32;20119;-60
2022/11/04 08:17:52;;;;;;;0.40;0.40;;;;;;;11.47;74.39;100026.47;18299088;32;20164;-59
2022/11/04 08:27:55;;;;;;;0.70;0.70;;;;;;;11.28;75.72;100010.16;18305677;32;20112;-59
2022/11/04 08:38:04;;;;;;;0.47;0.47;;;;;;;11.42;74.56;99991.72;18307712;32;20405;-59
2022/11/04 08:48:07;;;;;;;2.15;1.95;;;;;;;12.04;72.20;99998.75;18306818;32;20093;-59
2022/11/04 08:58:13;;;;;;;1.20;1.10;;;;;;;11.43;74.46;100000.41;18307307;32;20124;-59
2022/11/04 09:08:17;;;;;;;1.12;1.05;;;;;;;11.63;73.78;99987.09;18305406;32;20120;-59
2022/11/04 09:18:22;;;;;;;1.90;1.37;;;;;;;11.76;73.17;99979.94;18306418;32;20089;-59
2022/11/04 09:28:25;;;;;;;3.72;1.40;;;;;;;11.12;75.67;99975.53;18306130;32;20097;-59
2022/11/04 09:38:33;;;;;;;1.10;1.00;;;;;;;12.24;71.22;99963.59;18289261;32;20112;-60
2022/11/04 09:48:40;;;;;;;0.73;0.55;;;;;;;12.24;70.67;99958.34;18251229;32;20086;-59
2022/11/04 09:58:45;;;;;;;0.40;0.40;;;;;;;11.90;72.75;99935.28;18277937;32;20116;-59
2022/11/04 10:08:58;;;;;;;0.43;0.43;;;;;;;12.75;70.02;99933.03;18304015;32;20108;-59
2022/11/04 10:19:17;;;;;;;6.32;1.45;;;;;;;11.27;75.11;99926.56;18304436;32;20544;-59
2022/11/04 10:29:27;;;;;;;1.80;1.25;;;;;;;11.26;76.37;99928.34;18295801;32;20120;-59
2022/11/04 10:39:35;;;;;;;1.67;1.58;;;;;;;11.07;78.07;99917.22;18290343;32;20708;-59
2022/11/04 10:49:57;;;;;;;1.08;1.02;;;;;;;11.76;74.75;99899.75;18303705;32;20066;-60
2022/11/04 11:00:36;;;;;;;0.55;0.50;;;;;;;12.33;73.95;99870.97;18301955;32;20078;-59
2022/11/04 11:10:51;;;;;;;2.60;1.35;;;;;;;12.48;72.96;99865.44;18302509;32;20089;-59
2022/11/04 11:21:06;;;;;;;1.65;1.12;;;;;;;12.53;71.77;99862.75;18301959;32;20121;-59
2022/11/04 11:31:15;;;;;;;2.40;0.70;;;;;;;12.53;72.21;99833.94;18238472;32;20390;-59
2022/11/04 11:41:22;;;;;;;4.00;2.03;;;;;;;13.31;70.34;99830.56;18273603;32;20367;-59
2022/11/04 11:51:30;;;;;;;1.85;0.90;;;;;;;13.48;69.85;99815.38;18302497;32;20098;-59
2022/11/04 12:01:39;;;;;;;1.67;1.00;;;;;;;13.60;69.41;99801.97;18302351;32;20107;-60
2022/11/04 12:11:55;;;;;;;1.10;1.10;;;;;;;13.83;68.80;99811.03;18307328;32;20758;-59
2022/11/04 12:22:03;;;;;;;0.68;0.68;;;;;;;13.78;68.64;99786.69;18306519;32;20120;-59
2022/11/04 12:32:14;;;;;;;0.40;0.40;;;;;;;13.70;68.97;99769.38;18306313;32;20108;-59
2022/11/04 12:42:31;;;;;;;1.62;1.37;;;;;;;13.82;68.84;99746.34;18307603;32;20585;-59
2022/11/04 12:52:51;;;;;;;1.85;1.42;;;;;;;14.05;68.28;99723.88;18305124;32;20078;-60
2022/11/04 13:03:01;;;;;;;6.47;2.20;;;;;;;13.45;70.13;99725.41;18243705;32;20413;-59
2022/11/04 13:13:05;;;;;;;1.08;1.08;;;;;;;12.80;71.93;99703.31;18242405;32;20146;-59
2022/11/04 13:23:16;;;;;;;1.00;0.98;;;;;;;13.98;68.86;99697.81;18242496;32;20123;-60
2022/11/04 13:33:27;;;;;;;1.40;1.27;;;;;;;14.17;68.37;99693.78;18273479;32;20103;-59
2022/11/04 13:43:39;;;;;;;1.53;1.10;;;;;;;14.48;67.61;99688.50;18298735;32;20089;-59
2022/11/04 13:53:43;;;;;;;;;;;;;;;14.66;67.17;99675.75;18269976;32;20086;-59
2022/11/04 14:03:55;;;;;;;0.60;0.60;;;;;;;14.56;68.72;99659.41;18261458;32;19973;-59
2022/11/04 14:14:04;;;;;;;2.03;1.10;;;;;;;14.99;67.11;99667.75;18304826;32;20108;-59
2022/11/04 14:24:13;;;;;;;0.60;0.60;;;;;;;14.86;66.80;99661.16;18305053;32;20365;-59
2022/11/04 14:34:24;;;;;;;0.83;0.83;;;;;;;14.70;66.81;99662.47;18305735;32;20090;-60
2022/11/04 14:44:35;;;;;;;1.75;1.10;;;;;;;14.78;66.60;99651.72;18305412;32;20100;-59
2022/11/04 14:54:38;;;;;;;1.77;1.40;;;;;;;14.54;67.08;99627.94;18288718;32;20101;-59
2022/11/04 15:04:49;;;;;;;1.60;1.50;;;;;;;14.46;67.04;99610.69;18303196;32;20143;-59
2022/11/04 15:14:53;;;;;;;3.05;1.75;;;;;;;14.49;66.79;99608.81;18268840;32;20481;-60
2022/11/04 15:24:58;;;;;;;0.85;0.70;;;;;;;14.50;66.78;99607.06;18240766;32;20523;-60
2022/11/04 15:35:02;;;;;;;6.43;2.15;;;;;;;14.38;66.84;99603.94;18246396;32;20117;-59
2022/11/04 15:45:26;;;;;;;1.15;1.15;;;;;;;14.49;66.71;99621.13;18245903;32;20097;-60
2022/11/04 15:55:32;;;;;;;2.22;0.75;;;;;;;14.42;67.37;99620.44;18260269;32;20090;-60
2022/11/04 16:05:38;;;;;;;2.92;2.67;;;;;;;14.14;68.44;99613.41;18271560;32;20112;-59
2022/11/04 16:15:44;;;;;;;2.65;1.85;;;;;;;14.14;68.67;99608.16;18245001;32;20090;-59
2022/11/04 16:25:56;;;;;;;1.98;1.00;;;;;;;14.05;69.32;99606.66;18303426;32;20085;-59
2022/11/04 16:35:59;;;;;;;;;;;;;;;14.37;68.62;99617.09;18306873;32;20113;-60
2022/11/04 16:46:04;;;;;;;0.62;0.62;;;;;;;14.26;68.94;99628.78;18305330;32;19985;-59
2022/11/04 16:56:08;;;;;;;2.05;1.10;;;;;;;14.34;68.97;99622.44;18306228;32;20151;-59
2022/11/04 17:06:14;;;;;;;1.02;0.98;;;;;;;14.19;69.68;99619.34;18306733;32;20097;-59
2022/11/04 17:16:17;;;;;;;0.73;0.73;;;;;;;14.31;69.47;99614.63;18306600;32;20116;-59
2022/11/04 17:26:22;;;;;;;1.85;1.30;;;;;;;14.25;69.60;99600.81;18306085;32;20093;-59
2022/11/04 17:36:25;;;;;;;1.85;0.80;;;;;;;14.41;68.98;99624.81;18303463;32;20097;-60
2022/11/04 17:46:34;;;;;;;1.33;0.70;;;;;;;14.37;69.40;99604.84;18246849;32;20520;-59
2022/11/04 17:56:38;;;;;;;1.02;0.93;;;;;;;14.49;68.82;99595.69;18287158;32;20109;-60
2022/11/04 18:06:43;;;;;;;1.92;1.62;;;;;;;14.57;69.01;99596.31;18248997;32;20178;-59
2022/11/04 18:16:48;;;;;;;1.08;1.08;;;;;;;14.79;68.29;99592.19;18242079;32;20093;-59
2022/11/04 18:26:54;;;;;;;1.27;1.17;;;;;;;14.60;68.83;99602.38;18275693;32;20445;-59
2022/11/04 18:36:59;;;;;;;0.80;0.80;;;;;;;14.71;68.39;99602.91;18291346;32;20359;-59
2022/11/04 18:47:03;;;;;;;2.33;1.62;;;;;;;14.68;68.76;99603.00;18289943;32;20102;-59
2022/11/04 18:57:09;;;;;;;0.80;0.80;;;;;;;14.68;68.95;99605.63;18303765;32;20113;-59
2022/11/04 19:07:13;;;;;;;0.70;0.70;;;;;;;14.65;69.42;99677.50;18302903;32;20101;-59
2022/11/04 19:17:17;;;;;;;2.05;1.12;;;;;;;14.70;69.68;99677.34;18288470;32;20090;-59
2022/11/04 19:27:23;;;;;;;0.62;0.62;;;;;;;14.68;69.95;99658.16;18302277;32;20168;-59
2022/11/04 19:37:27;;;;;;;0.90;0.90;;;;;;;14.71;69.88;99652.81;18301686;32;20104;-59
2022/11/04 19:47:33;;;;;;;0.65;0.65;;;;;;;14.26;72.09;99638.41;18300981;32;20093;-59
2022/11/04 19:57:36;;;;;;;1.90;1.80;;;;;;;14.13;72.93;99644.03;18297646;32;73268;-59
2022/11/04 20:07:41;;;;;;;0.50;0.50;;;;;;;14.21;72.45;99641.16;18273579;32;20098;-59
2022/11/04 20:17:45;;;;;;;0.95;0.95;;;;;;;14.43;71.14;99637.91;18242628;32;20116;-60
2022/11/04 20:27:50;;;;;;;2.03;0.82;;;;;;;14.60;70.29;99645.28;18289172;32;20111;-59
2022/11/04 20:37:53;;;;;;;0.95;0.82;;;;;;;12.95;77.13;99641.88;18307770;32;20117;-59
2022/11/04 20:47:58;;;;;;;2.42;1.25;;;;;;;14.32;71.58;99654.00;18308744;32;20358;-59
2022/11/04 20:58:01;;;;;;;2.22;1.37;;;;;;;14.41;71.14;99658.09;18292814;32;20098;-59
2022/11/04 21:08:06;;;;;;;1.67;1.10;;;;;;;14.43;71.11;99654.50;18306908;32;20401;-60
2022/11/04 21:18:11;;;;;;;1.15;1.10;;;;;;;14.53;70.60;99649.84;18307025;32;20100;-59
2022/11/04 21:28:17;;;;;;;0.88;0.85;;;;;;;14.53;70.40;99659.50;18306425;32;20105;-59
2022/11/04 21:38:22;;;;;;;0.68;0.68;;;;;;;14.50;70.11;99670.94;18306303;32;20510;-60
2022/11/04 21:48:26;;;;;;;0.70;0.70;;;;;;;14.34;70.48;99680.19;18305639;32;20093;-59
2022/11/04 21:58:30;;;;;;;2.00;1.55;;;;;;;14.48;69.98;99703.44;18303463;32;20362;-59
2022/11/04 22:08:35;;;;;;;1.50;0.80;;;;;;;14.52;70.54;99715.56;18262780;32;20458;-59
2022/11/04 22:18:38;;;;;;;0.60;0.60;;;;;;;14.61;70.58;99690.78;18242184;32;20078;-59
2022/11/04 22:28:43;;;;;;;1.30;1.20;;;;;;;14.75;70.26;99714.00;18280883;32;20109;-59
2022/11/04 22:38:47;;;;;;;0.60;0.60;;;;;;;14.45;71.59;99699.13;18304880;32;20153;-59
2022/11/04 22:48:51;;;;;;;1.55;0.85;;;;;;;14.62;70.84;99700.38;18304534;32;20089;-59
2022/11/04 22:58:55;;;;;;;1.60;1.37;;;;;;;14.57;71.05;99709.25;18303626;32;20185;-59
2022/11/04 23:08:59;;;;;;;2.83;1.12;;;;;;;14.47;71.40;99696.47;18303550;32;20141;-59
2022/11/04 23:19:03;;;;;;;0.55;0.55;;;;;;;14.61;70.43;99693.41;18302723;32;20096;-59
2022/11/04 23:39:28;;;;;;;4.55;1.98;;;;;;;14.47;70.04;99717.47;18301624;32;20090;-59
